createdAt,value
2023-05-05T00:01:24.834Z,100263.27
2023-05-05T00:03:51.974Z,100263.46
2023-05-05T00:06:18.876Z,100268.08
2023-05-05T00:08:46.420Z,100269.14
2023-05-05T00:11:13.270Z,100271.17
2023-05-05T00:13:40.092Z,100269.14
2023-05-05T00:16:07.445Z,100269.67
2023-05-05T00:18:34.300Z,100261.18
2023-05-05T00:21:01.816Z,100263.02
2023-05-05T00:23:28.823Z,100259.77
2023-05-05T00:25:56.094Z,100260.08
2023-05-05T00:28:23.223Z,100263.94
2023-05-05T00:30:50.214Z,100261.89
2023-05-05T00:33:17.226Z,100265.48
2023-05-05T00:35:43.941Z,100269.23
2023-05-05T00:38:10.756Z,100273.95
2023-05-05T00:40:38.368Z,100276.61
2023-05-05T00:43:05.367Z,100276.54
2023-05-05T00:45:32.335Z,100276.30
2023-05-05T00:47:59.508Z,100280.41
2023-05-05T00:50:31.884Z,100273.83
2023-05-05T00:53:02.123Z,100273.91
2023-05-05T00:55:29.725Z,100271.35
2023-05-05T00:58:00.330Z,100265.40
2023-05-05T01:00:27.577Z,100264.82
2023-05-05T01:02:55.601Z,100270.59
2023-05-05T01:05:22.866Z,100275.83
2023-05-05T01:07:55.915Z,100275.81
2023-05-05T01:10:30.043Z,100278.59
2023-05-05T01:13:34.808Z,100273.78
2023-05-05T01:16:06.920Z,100270.87
2023-05-05T01:18:46.390Z,100264.08
2023-05-05T01:21:14.738Z,100264.20
2023-05-05T01:24:02.747Z,100266.38
2023-05-05T01:26:47.884Z,100269.11
2023-05-05T01:29:35.492Z,100270.04
2023-05-05T01:32:10.894Z,100266.73
2023-05-05T01:34:42.315Z,100270.32
2023-05-05T01:37:29.475Z,100270.70
2023-05-05T01:39:59.336Z,100275.01
2023-05-05T01:42:26.178Z,100270.52
2023-05-05T01:44:53.364Z,100275.71
2023-05-05T01:47:21.770Z,100276.66
2023-05-05T01:49:48.988Z,100278.61
2023-05-05T01:52:17.712Z,100280.39
2023-05-05T01:54:45.217Z,100282.91
2023-05-05T01:57:12.176Z,100285.68
2023-05-05T01:59:39.765Z,100282.38
2023-05-05T02:02:09.514Z,100289.16
2023-05-05T02:04:37.554Z,100285.98
2023-05-05T02:07:04.427Z,100283.08
2023-05-05T02:09:31.405Z,100286.19
2023-05-05T02:11:58.480Z,100283.50
2023-05-05T02:14:27.168Z,100280.98
2023-05-05T02:16:53.936Z,100281.54
2023-05-05T02:19:21.526Z,100269.70
2023-05-05T02:21:48.555Z,100275.89
2023-05-05T02:24:15.458Z,100274.41
2023-05-05T02:26:43.377Z,100272.08
2023-05-05T02:29:16.720Z,100270.66
2023-05-05T02:31:53.825Z,100265.11
2023-05-05T02:34:27.097Z,100266.31
2023-05-05T02:36:57.875Z,100266.80
2023-05-05T02:39:29.890Z,100260.50
2023-05-05T02:41:57.149Z,100261.23
2023-05-05T02:44:26.243Z,100264.14
2023-05-05T02:46:54.391Z,100266.59
2023-05-05T02:49:21.725Z,100268.82
2023-05-05T02:51:48.683Z,100270.52
2023-05-05T02:54:20.767Z,100272.63
2023-05-05T02:56:49.237Z,100272.75
2023-05-05T02:59:22.081Z,100273.65
2023-05-05T03:01:59.876Z,100279.86
2023-05-05T03:05:02.696Z,100283.10
2023-05-05T03:07:51.696Z,100283.92
2023-05-05T03:10:21.408Z,100281.49
2023-05-05T03:12:55.389Z,100281.29
2023-05-05T03:15:37.872Z,100286.61
2023-05-05T03:18:04.755Z,100287.67
2023-05-05T03:20:32.163Z,100294.78
2023-05-05T03:23:02.398Z,100295.80
2023-05-05T03:25:43.005Z,100291.95
2023-05-05T03:28:10.643Z,100285.08
2023-05-05T03:30:37.820Z,100284.15
2023-05-05T03:33:04.897Z,100280.38
2023-05-05T03:35:32.251Z,100279.06
2023-05-05T03:37:59.555Z,100284.02
2023-05-05T03:40:36.258Z,100271.95
2023-05-05T03:43:08.203Z,100275.10
2023-05-05T03:45:35.054Z,100275.61
2023-05-05T03:48:02.396Z,100271.66
2023-05-05T03:50:29.759Z,100275.37
2023-05-05T03:52:56.617Z,100271.19
2023-05-05T03:55:23.417Z,100271.98
2023-05-05T03:57:51.076Z,100277.13
2023-05-05T04:00:18.201Z,100284.35
2023-05-05T04:02:45.322Z,100286.59
2023-05-05T04:05:12.560Z,100290.40
2023-05-05T04:07:39.433Z,100291.54
2023-05-05T04:10:07.401Z,100292.83
2023-05-05T04:12:34.594Z,100297.39
2023-05-05T04:15:01.596Z,100302.30
2023-05-05T04:17:29.354Z,100300.23
2023-05-05T04:19:56.401Z,100303.56
2023-05-05T04:22:23.205Z,100303.94
2023-05-05T04:24:50.904Z,100306.50
2023-05-05T04:27:18.028Z,100302.20
2023-05-05T04:29:44.957Z,100301.98
2023-05-05T04:32:11.830Z,100306.15
2023-05-05T04:34:38.742Z,100303.50
2023-05-05T04:37:06.444Z,100304.71
2023-05-05T04:39:33.980Z,100307.42
2023-05-05T04:42:02.381Z,100311.90
2023-05-05T04:44:29.680Z,100307.49
2023-05-05T04:46:57.979Z,100303.59
2023-05-05T04:49:24.996Z,100303.64
2023-05-05T04:51:51.842Z,100300.92
2023-05-05T04:54:18.670Z,100302.46
2023-05-05T04:56:45.484Z,100311.34
2023-05-05T04:59:12.279Z,100316.76
2023-05-05T05:01:39.184Z,100319.16
2023-05-05T05:04:07.367Z,100323.48
2023-05-05T05:06:34.350Z,100324.73
2023-05-05T05:09:01.126Z,100328.82
2023-05-05T05:11:29.023Z,100331.98
2023-05-05T05:13:55.924Z,100336.80
2023-05-05T05:16:22.740Z,100340.02
2023-05-05T05:18:49.556Z,100337.24
2023-05-05T05:21:17.102Z,100336.48
2023-05-05T05:23:44.347Z,100334.31
2023-05-05T05:26:11.783Z,100335.49
2023-05-05T05:28:38.742Z,100342.95
2023-05-05T05:31:05.552Z,100347.09
2023-05-05T05:33:32.518Z,100351.05
2023-05-05T05:35:59.372Z,100347.86
2023-05-05T05:38:26.317Z,100340.53
2023-05-05T05:40:54.929Z,100337.23
2023-05-05T05:43:21.861Z,100334.09
2023-05-05T05:45:48.750Z,100339.23
2023-05-05T05:48:15.989Z,100340.63
2023-05-05T05:50:43.177Z,100341.09
2023-05-05T05:53:10.060Z,100334.05
2023-05-05T05:55:37.075Z,100333.52
2023-05-05T05:58:04.416Z,100337.52
2023-05-05T06:00:31.441Z,100337.27
2023-05-05T06:03:01.103Z,100334.27
2023-05-05T06:05:30.405Z,100334.52
2023-05-05T06:07:57.538Z,100338.85
2023-05-05T06:10:28.231Z,100336.95
2023-05-05T06:13:00.717Z,100337.20
2023-05-05T06:15:27.741Z,100335.98
2023-05-05T06:17:54.815Z,100340.15
2023-05-05T06:20:22.005Z,100342.16
2023-05-05T06:22:48.950Z,100342.31
2023-05-05T06:25:16.719Z,100344.16
2023-05-05T06:27:43.752Z,100340.26
2023-05-05T06:30:11.690Z,100337.03
2023-05-05T06:32:38.643Z,100337.79
2023-05-05T06:35:06.313Z,100332.92
2023-05-05T06:37:33.197Z,100339.11
2023-05-05T06:40:00.089Z,100339.06
2023-05-05T06:42:26.992Z,100342.75
2023-05-05T06:44:53.890Z,100345.48
2023-05-05T06:47:20.706Z,100341.91
2023-05-05T06:49:47.487Z,100340.54
2023-05-05T06:52:14.500Z,100336.65
2023-05-05T06:54:41.330Z,100336.68
2023-05-05T06:57:08.203Z,100334.79
2023-05-05T06:59:35.012Z,100333.92
2023-05-05T07:02:01.924Z,100332.41
2023-05-05T07:04:28.915Z,100333.67
2023-05-05T07:06:56.467Z,100332.21
2023-05-05T07:09:23.418Z,100331.33
2023-05-05T07:11:50.373Z,100333.14
2023-05-05T07:14:17.338Z,100336.42
2023-05-05T07:18:47.751Z,100335.33
2023-05-05T07:21:16.712Z,100337.25
2023-05-05T07:23:43.570Z,100337.42
2023-05-05T07:26:10.627Z,100339.88
2023-05-05T07:28:37.457Z,100338.75
2023-05-05T07:31:04.263Z,100344.21
2023-05-05T07:33:31.501Z,100346.83
2023-05-05T07:35:58.286Z,100346.48
2023-05-05T07:38:25.874Z,100348.53
2023-05-05T07:40:52.675Z,100353.30
2023-05-05T07:43:19.568Z,100350.52
2023-05-05T07:45:46.376Z,100347.54
2023-05-05T07:48:13.190Z,100340.10
2023-05-05T07:50:40.217Z,100336.80
2023-05-05T07:53:14.365Z,100339.10
2023-05-05T07:55:42.210Z,100338.82
2023-05-05T07:58:11.110Z,100342.67
2023-05-05T08:00:38.610Z,100339.27
2023-05-05T08:03:05.975Z,100331.52
2023-05-05T08:05:34.030Z,100331.30
2023-05-05T08:08:00.967Z,100330.23
2023-05-05T08:10:27.862Z,100335.77
2023-05-05T08:12:55.093Z,100335.65
2023-05-05T08:15:21.973Z,100332.47
2023-05-05T08:17:50.569Z,100327.30
2023-05-05T08:20:18.220Z,100330.95
2023-05-05T08:22:45.328Z,100327.55
2023-05-05T08:25:13.297Z,100326.64
2023-05-05T08:27:41.128Z,100327.08
2023-05-05T08:30:08.587Z,100329.52
2023-05-05T08:32:35.587Z,100328.50
2023-05-05T08:35:03.385Z,100326.17
2023-05-05T08:37:30.719Z,100329.40
2023-05-05T08:40:25.173Z,100328.52
2023-05-05T08:42:51.916Z,100328.15
2023-05-05T08:45:18.748Z,100325.38
2023-05-05T08:47:45.725Z,100325.39
2023-05-05T08:50:12.665Z,100326.16
2023-05-05T08:52:42.198Z,100324.71
2023-05-05T08:55:18.361Z,100324.17
2023-05-05T08:57:51.772Z,100322.60
2023-05-05T09:00:19.286Z,100324.20
2023-05-05T09:02:46.262Z,100321.91
2023-05-05T09:05:13.135Z,100321.09
2023-05-05T09:07:44.343Z,100326.63
2023-05-05T09:10:11.862Z,100322.90
2023-05-05T09:12:40.623Z,100327.37
2023-05-05T09:15:11.752Z,100326.84
2023-05-05T09:17:39.417Z,100319.83
2023-05-05T09:20:08.171Z,100314.33
2023-05-05T09:22:39.798Z,100319.63
2023-05-05T09:25:08.116Z,100323.86
2023-05-05T09:27:41.150Z,100321.54
2023-05-05T09:30:09.384Z,100319.55
2023-05-05T09:32:54.945Z,100314.89
2023-05-05T09:35:22.640Z,100310.85
2023-05-05T09:37:49.509Z,100310.50
2023-05-05T09:40:17.948Z,100306.11
2023-05-05T09:42:45.078Z,100305.04
2023-05-05T09:45:18.378Z,100307.17
2023-05-05T09:47:46.180Z,100306.05
2023-05-05T09:50:19.018Z,100305.87
2023-05-05T09:53:02.044Z,100302.69
2023-05-05T09:55:29.231Z,100304.94
2023-05-05T09:57:56.183Z,100299.80
2023-05-05T10:00:23.659Z,100298.32
2023-05-05T10:02:50.514Z,100293.09
2023-05-05T10:05:18.445Z,100294.37
2023-05-05T10:07:47.031Z,100293.05
2023-05-05T10:10:16.396Z,100289.38
2023-05-05T10:12:43.510Z,100286.61
2023-05-05T10:15:11.187Z,100292.70
2023-05-05T10:17:58.366Z,100293.34
2023-05-05T10:20:33.551Z,100285.13
2023-05-05T10:23:00.370Z,100282.91
2023-05-05T10:25:33.702Z,100274.84
2023-05-05T10:28:01.268Z,100267.52
2023-05-05T10:30:32.283Z,100267.73
2023-05-05T10:35:53.578Z,100269.73
2023-05-05T10:38:20.520Z,100270.02
2023-05-05T10:40:48.744Z,100267.89
2023-05-05T10:43:15.804Z,100256.67
2023-05-05T10:45:42.572Z,100257.80
2023-05-05T10:48:13.025Z,100261.17
2023-05-05T10:50:44.759Z,100263.52
2023-05-05T10:53:24.717Z,100255.04
2023-05-05T10:56:06.522Z,100253.78
2023-05-05T10:58:43.679Z,100251.48
2023-05-05T11:01:14.680Z,100250.55
2023-05-05T11:03:41.564Z,100250.89
2023-05-05T11:06:08.969Z,100250.61
2023-05-05T11:08:36.817Z,100251.92
2023-05-05T11:11:04.228Z,100253.26
2023-05-05T11:13:31.207Z,100243.36
2023-05-05T11:15:58.926Z,100240.75
2023-05-05T11:18:38.329Z,100234.27
2023-05-05T11:21:15.867Z,100236.25
2023-05-05T11:23:44.284Z,100231.33
2023-05-05T11:26:12.302Z,100233.03
2023-05-05T11:28:56.491Z,100236.47
2023-05-05T11:31:23.575Z,100227.48
2023-05-05T11:33:50.691Z,100225.88
2023-05-05T11:36:18.319Z,100217.45
2023-05-05T11:39:00.532Z,100219.88
2023-05-05T11:41:33.551Z,100220.99
2023-05-05T11:44:10.586Z,100220.43
2023-05-05T11:46:38.901Z,100218.71
2023-05-05T11:49:05.750Z,100221.55
2023-05-05T11:51:32.906Z,100217.11
2023-05-05T11:53:59.852Z,100215.14
2023-05-05T11:56:26.767Z,100212.13
2023-05-05T11:59:10.876Z,100205.52
2023-05-05T12:01:41.355Z,100202.49
2023-05-05T12:04:15.120Z,100197.05
2023-05-05T12:06:42.412Z,100199.48
2023-05-05T12:09:20.240Z,100194.09
2023-05-05T12:11:52.676Z,100190.36
2023-05-05T12:14:19.561Z,100185.28
2023-05-05T12:16:58.763Z,100185.88
2023-05-05T12:19:33.077Z,100187.02
2023-05-05T12:22:00.868Z,100185.51
2023-05-05T12:24:28.225Z,100186.77
2023-05-05T12:26:55.018Z,100179.63
2023-05-05T12:29:28.927Z,100171.61
2023-05-05T12:31:56.091Z,100169.33
2023-05-05T12:34:23.295Z,100169.40
2023-05-05T12:36:50.077Z,100168.66
2023-05-05T12:39:16.815Z,100170.71
2023-05-05T12:41:43.600Z,100166.51
2023-05-05T12:44:10.604Z,100162.13
2023-05-05T12:46:47.458Z,100165.74
2023-05-05T12:49:14.454Z,100159.10
2023-05-05T12:51:55.790Z,100155.92
2023-05-05T12:54:25.470Z,100156.69
2023-05-05T12:56:52.274Z,100159.04
2023-05-05T12:59:22.111Z,100156.64
2023-05-05T13:01:52.946Z,100161.13
2023-05-05T13:04:21.415Z,100166.94
2023-05-05T13:06:49.297Z,100160.92
2023-05-05T13:09:23.451Z,100166.03
2023-05-05T13:11:50.722Z,100166.77
2023-05-05T13:14:17.576Z,100165.70
2023-05-05T13:16:44.418Z,100166.95
2023-05-05T13:19:11.188Z,100166.86
2023-05-05T13:21:37.996Z,100168.41
2023-05-05T13:24:22.940Z,100170.29
2023-05-05T13:26:52.207Z,100167.36
2023-05-05T13:29:19.150Z,100168.79
2023-05-05T13:31:46.008Z,100168.16
2023-05-05T13:34:12.916Z,100166.88
2023-05-05T13:36:39.753Z,100166.24
2023-05-05T13:39:07.204Z,100170.79
2023-05-05T13:41:33.975Z,100170.61
2023-05-05T13:44:00.899Z,100170.98
2023-05-05T13:46:27.851Z,100171.37
2023-05-05T13:48:56.617Z,100169.07
2023-05-05T13:51:23.828Z,100168.55
2023-05-05T13:53:51.004Z,100163.27
2023-05-05T13:56:19.306Z,100161.14
2023-05-05T13:58:46.504Z,100161.73
2023-05-05T14:01:15.444Z,100160.30
2023-05-05T14:03:42.218Z,100160.39
2023-05-05T14:06:09.340Z,100164.48
2023-05-05T14:08:36.552Z,100157.74
2023-05-05T14:11:03.959Z,100158.56
2023-05-05T14:13:31.268Z,100151.73
2023-05-05T14:15:58.519Z,100153.66
2023-05-05T14:18:25.735Z,100150.02
2023-05-05T14:20:52.716Z,100149.54
2023-05-05T14:23:19.588Z,100151.28
2023-05-05T14:25:46.624Z,100151.72
2023-05-05T14:28:13.470Z,100148.14
2023-05-05T14:30:40.245Z,100148.86
2023-05-05T14:33:07.099Z,100144.48
2023-05-05T14:35:34.118Z,100146.91
2023-05-05T14:38:00.879Z,100143.25
2023-05-05T14:40:29.624Z,100145.50
2023-05-05T14:42:56.422Z,100145.27
2023-05-05T14:45:23.619Z,100144.91
2023-05-05T14:47:50.439Z,100143.70
2023-05-05T14:50:17.254Z,100139.20
2023-05-05T14:52:44.734Z,100137.84
2023-05-05T14:55:11.997Z,100138.89
2023-05-05T14:57:38.959Z,100142.70
2023-05-05T15:00:10.985Z,100143.73
2023-05-05T15:02:37.930Z,100149.11
2023-05-05T15:05:05.272Z,100148.81
2023-05-05T15:07:31.989Z,100146.73
2023-05-05T15:09:58.733Z,100144.41
2023-05-05T15:12:26.199Z,100146.02
2023-05-05T15:14:53.149Z,100147.75
2023-05-05T15:17:19.925Z,100145.93
2023-05-05T15:19:46.790Z,100145.10
2023-05-05T15:22:13.634Z,100144.11
2023-05-05T15:24:40.582Z,100145.84
2023-05-05T15:27:07.524Z,100146.25
2023-05-05T15:29:34.378Z,100144.23
2023-05-05T15:32:01.398Z,100149.37
2023-05-05T15:34:28.429Z,100148.23
2023-05-05T15:36:55.218Z,100148.71
2023-05-05T15:39:22.005Z,100146.44
2023-05-05T15:41:48.813Z,100148.73
2023-05-05T15:44:16.061Z,100148.39
2023-05-05T15:46:43.038Z,100146.99
2023-05-05T15:49:09.899Z,100146.84
2023-05-05T15:51:36.658Z,100146.00
2023-05-05T15:54:03.405Z,100146.30
2023-05-05T15:56:30.277Z,100148.84
2023-05-05T15:58:57.190Z,100152.52
2023-05-05T16:01:24.305Z,100154.96
2023-05-05T16:03:51.931Z,100154.73
2023-05-05T16:06:18.840Z,100157.85
2023-05-05T16:08:47.851Z,100155.34
2023-05-05T16:11:14.763Z,100156.49
2023-05-05T16:13:42.663Z,100161.02
2023-05-05T16:16:09.442Z,100166.41
2023-05-05T16:18:36.307Z,100167.08
2023-05-05T16:21:03.044Z,100173.20
2023-05-05T16:23:29.909Z,100170.14
2023-05-05T16:25:56.716Z,100171.55
2023-05-05T16:28:23.468Z,100174.66
2023-05-05T16:30:50.218Z,100173.39
2023-05-05T16:33:17.051Z,100168.50
2023-05-05T16:35:45.787Z,100175.77
2023-05-05T16:38:13.416Z,100174.35
2023-05-05T16:40:40.574Z,100172.60
2023-05-05T16:43:07.392Z,100177.03
2023-05-05T16:45:34.310Z,100176.08
2023-05-05T16:48:01.158Z,100177.98
2023-05-05T16:50:28.035Z,100183.20
2023-05-05T16:52:54.850Z,100183.48
2023-05-05T16:55:21.753Z,100187.83
2023-05-05T16:57:48.583Z,100187.23
2023-05-05T17:00:15.591Z,100192.23
2023-05-05T17:02:42.484Z,100190.90
2023-05-05T17:05:09.833Z,100193.39
2023-05-05T17:07:36.908Z,100196.11
2023-05-05T17:10:04.527Z,100193.84
2023-05-05T17:12:31.369Z,100195.39
2023-05-05T17:14:58.258Z,100199.38
2023-05-05T17:17:25.154Z,100201.23
2023-05-05T17:19:52.043Z,100202.27
2023-05-05T17:22:20.988Z,100199.48
2023-05-05T17:24:47.766Z,100199.44
2023-05-05T17:27:14.540Z,100204.64
2023-05-05T17:29:41.560Z,100202.63
2023-05-05T17:32:09.047Z,100207.13
2023-05-05T17:34:36.039Z,100206.91
2023-05-05T17:37:02.828Z,100209.69
2023-05-05T17:39:30.272Z,100211.14
2023-05-05T17:41:57.166Z,100212.07
2023-05-05T17:44:24.046Z,100214.35
2023-05-05T17:46:51.119Z,100213.45
2023-05-05T17:49:17.922Z,100216.39
2023-05-05T17:51:44.675Z,100219.11
2023-05-05T17:54:11.708Z,100222.75
2023-05-05T17:56:38.510Z,100221.23
2023-05-05T17:59:05.264Z,100224.43
2023-05-05T18:01:32.894Z,100224.38
2023-05-05T18:03:59.762Z,100227.36
2023-05-05T18:06:27.005Z,100227.13
2023-05-05T18:08:53.839Z,100226.34
2023-05-05T18:11:21.433Z,100229.92
2023-05-05T18:13:48.245Z,100238.76
2023-05-05T18:16:15.065Z,100245.68
2023-05-05T18:18:41.919Z,100249.77
2023-05-05T18:21:12.366Z,100252.25
2023-05-05T18:23:40.075Z,100254.46
2023-05-05T18:26:07.276Z,100255.56
2023-05-05T18:28:34.373Z,100256.36
2023-05-05T18:31:01.238Z,100258.23
2023-05-05T18:33:27.995Z,100258.41
2023-05-05T18:35:55.276Z,100258.87
2023-05-05T18:38:22.372Z,100259.95
2023-05-05T18:40:49.180Z,100259.27
2023-05-05T18:43:15.960Z,100260.05
2023-05-05T18:45:42.824Z,100260.82
2023-05-05T18:48:09.797Z,100260.48
2023-05-05T18:50:36.711Z,100259.13
2023-05-05T18:53:03.527Z,100260.02
2023-05-05T18:55:30.289Z,100260.08
2023-05-05T18:57:57.169Z,100257.27
2023-05-05T19:00:24.620Z,100259.21
2023-05-05T19:02:51.583Z,100258.45
2023-05-05T19:05:18.603Z,100259.35
2023-05-05T19:07:45.945Z,100257.20
2023-05-05T19:10:12.986Z,100259.45
2023-05-05T19:12:39.828Z,100259.95
2023-05-05T19:15:07.767Z,100262.56
2023-05-05T19:17:34.905Z,100260.25
2023-05-05T19:20:02.333Z,100262.79
2023-05-05T19:22:29.375Z,100262.80
2023-05-05T19:24:56.131Z,100265.25
2023-05-05T19:27:22.938Z,100262.81
2023-05-05T19:29:52.493Z,100263.45
2023-05-05T19:32:21.124Z,100262.95
2023-05-05T19:36:27.924Z,100266.14
2023-05-05T19:38:56.833Z,100268.30
2023-05-05T19:41:23.712Z,100267.20
2023-05-05T19:43:50.556Z,100274.86
2023-05-05T19:46:17.482Z,100272.42
2023-05-05T19:48:46.258Z,100277.29
2023-05-05T19:51:14.082Z,100276.62
2023-05-05T19:53:42.997Z,100272.48
2023-05-05T19:56:10.194Z,100272.44
2023-05-05T19:58:54.008Z,100275.48
2023-05-05T20:01:21.387Z,100274.69
2023-05-05T20:03:48.357Z,100275.68
2023-05-05T20:06:15.518Z,100278.70
2023-05-05T20:08:43.635Z,100282.44
2023-05-05T20:11:10.444Z,100284.46
2023-05-05T20:13:39.181Z,100285.55
2023-05-05T20:16:07.301Z,100285.55
2023-05-05T20:18:34.250Z,100291.38
2023-05-05T20:21:01.976Z,100292.39
2023-05-05T20:23:28.849Z,100292.41
2023-05-05T20:25:56.140Z,100292.73
2023-05-05T20:28:22.994Z,100292.88
2023-05-05T20:30:49.888Z,100293.80
2023-05-05T20:33:16.702Z,100290.35
2023-05-05T20:35:43.601Z,100290.46
2023-05-05T20:38:11.337Z,100295.45
2023-05-05T20:40:38.283Z,100296.09
2023-05-05T20:43:05.024Z,100295.39
2023-05-05T20:45:34.187Z,100293.42
2023-05-05T20:48:01.470Z,100300.52
2023-05-05T20:50:28.645Z,100307.08
2023-05-05T20:52:55.629Z,100317.08
2023-05-05T20:55:22.570Z,100317.89
2023-05-05T20:57:49.437Z,100319.65
2023-05-05T21:00:16.470Z,100319.92
2023-05-05T21:02:43.529Z,100324.39
2023-05-05T21:05:10.872Z,100323.11
2023-05-05T21:07:37.824Z,100328.96
2023-05-05T21:10:05.096Z,100333.77
2023-05-05T21:12:33.253Z,100335.74
2023-05-05T21:15:00.689Z,100338.58
2023-05-05T21:17:27.680Z,100339.83
2023-05-05T21:19:55.006Z,100342.10
2023-05-05T21:22:21.840Z,100345.51
2023-05-05T21:24:48.691Z,100348.56
2023-05-05T21:27:15.633Z,100341.96
2023-05-05T21:29:42.477Z,100348.29
2023-05-05T21:32:10.536Z,100350.17
2023-05-05T21:34:37.980Z,100352.02
2023-05-05T21:37:05.226Z,100353.29
2023-05-05T21:39:33.297Z,100357.49
2023-05-05T21:42:00.368Z,100357.08
2023-05-05T21:44:28.322Z,100359.05
2023-05-05T21:46:55.601Z,100361.93
2023-05-05T21:49:22.534Z,100361.91
2023-05-05T21:51:49.976Z,100360.33
2023-05-05T21:54:16.964Z,100361.14
2023-05-05T21:56:43.975Z,100364.23
2023-05-05T21:59:11.219Z,100363.64
2023-05-05T22:01:38.095Z,100361.47
2023-05-05T22:04:05.185Z,100369.19
2023-05-05T22:06:32.601Z,100372.48
2023-05-05T22:08:59.432Z,100373.59
2023-05-05T22:11:26.320Z,100377.05
2023-05-05T22:13:53.118Z,100376.26
2023-05-05T22:16:19.986Z,100375.10
2023-05-05T22:18:46.916Z,100372.86
2023-05-05T22:21:13.769Z,100373.16
2023-05-05T22:23:42.048Z,100373.09
2023-05-05T22:26:09.483Z,100370.77
2023-05-05T22:28:36.524Z,100370.52
2023-05-05T22:31:03.311Z,100371.91
2023-05-05T22:33:30.314Z,100374.20
2023-05-05T22:35:57.092Z,100373.14
2023-05-05T22:38:23.874Z,100374.69
2023-05-05T22:40:50.762Z,100371.81
2023-05-05T22:43:17.558Z,100369.35
2023-05-05T22:45:44.388Z,100372.20
2023-05-05T22:48:11.467Z,100374.89
2023-05-05T22:50:38.401Z,100372.26
2023-05-05T22:53:05.211Z,100372.94
2023-05-05T22:55:32.491Z,100373.27
2023-05-05T22:57:59.334Z,100374.79
2023-05-05T23:00:26.326Z,100375.92
2023-05-05T23:02:53.221Z,100372.33
2023-05-05T23:05:20.331Z,100369.15
2023-05-05T23:07:47.726Z,100367.98
2023-05-05T23:10:14.786Z,100368.74
2023-05-05T23:12:41.781Z,100368.58
2023-05-05T23:15:10.180Z,100372.00
2023-05-05T23:17:37.354Z,100376.75
2023-05-05T23:20:04.752Z,100380.70
2023-05-05T23:22:31.619Z,100380.80
2023-05-05T23:24:58.519Z,100379.84
2023-05-05T23:27:25.409Z,100378.41
2023-05-05T23:29:52.679Z,100378.41
2023-05-05T23:32:19.499Z,100376.88
2023-05-05T23:34:46.617Z,100376.64
2023-05-05T23:37:15.028Z,100381.49
2023-05-05T23:39:42.059Z,100382.55
2023-05-05T23:42:08.951Z,100384.27
2023-05-05T23:44:35.921Z,100381.55
2023-05-05T23:47:04.193Z,100381.48
2023-05-05T23:49:31.407Z,100375.80
2023-05-05T23:51:58.588Z,100371.26
2023-05-05T23:54:25.411Z,100374.98
2023-05-05T23:56:52.536Z,100380.14
2023-05-05T23:59:19.365Z,100377.17
